sensor_id;sensor_type;location;lat;lon;timestamp;P1;durP1;ratioP1;P2;durP2;ratioP2
23078;SDS011;11707;50.830;4.364;2023-02-28T00:01:41;6.03;;;3.42;;
23078;SDS011;11707;50.830;4.364;2023-02-28T00:04:06;7.80;;;4.07;;
23078;SDS011;11707;50.830;4.364;2023-02-28T00:06:34;5.97;;;4.40;;
23078;SDS011;11707;50.830;4.364;2023-02-28T00:09:02;6.78;;;3.83;;
23078;SDS011;11707;50.830;4.364;2023-02-28T00:11:27;6.90;;;4.35;;
23078;SDS011;11707;50.830;4.364;2023-02-28T00:13:53;6.68;;;3.83;;
23078;SDS011;11707;50.830;4.364;2023-02-28T00:16:20;7.38;;;4.05;;
23078;SDS011;11707;50.830;4.364;2023-02-28T00:18:47;6.75;;;4.38;;
23078;SDS011;11707;50.830;4.364;2023-02-28T00:21:13;6.15;;;3.60;;
23078;SDS011;11707;50.830;4.364;2023-02-28T00:23:40;8.10;;;4.22;;
23078;SDS011;11707;50.830;4.364;2023-02-28T00:26:05;7.25;;;4.18;;
23078;SDS011;11707;50.830;4.364;2023-02-28T00:28:31;6.43;;;4.57;;
23078;SDS011;11707;50.830;4.364;2023-02-28T00:30:57;7.15;;;3.45;;
23078;SDS011;11707;50.830;4.364;2023-02-28T00:33:25;8.50;;;4.55;;
23078;SDS011;11707;50.830;4.364;2023-02-28T00:36:01;8.95;;;5.65;;
23078;SDS011;11707;50.830;4.364;2023-02-28T00:38:31;10.85;;;6.68;;
23078;SDS011;11707;50.830;4.364;2023-02-28T00:40:57;14.63;;;7.82;;
23078;SDS011;11707;50.830;4.364;2023-02-28T00:43:29;12.95;;;8.07;;
23078;SDS011;11707;50.830;4.364;2023-02-28T00:45:58;15.85;;;8.50;;
23078;SDS011;11707;50.830;4.364;2023-02-28T00:48:23;13.45;;;9.45;;
23078;SDS011;11707;50.830;4.364;2023-02-28T00:50:49;12.38;;;7.97;;
23078;SDS011;11707;50.830;4.364;2023-02-28T00:53:15;17.63;;;8.63;;
23078;SDS011;11707;50.830;4.364;2023-02-28T00:55:43;14.45;;;7.35;;
23078;SDS011;11707;50.830;4.364;2023-02-28T00:58:09;10.48;;;5.55;;
23078;SDS011;11707;50.830;4.364;2023-02-28T01:00:34;9.85;;;5.03;;
23078;SDS011;11707;50.830;4.364;2023-02-28T01:03:00;8.68;;;4.63;;
23078;SDS011;11707;50.830;4.364;2023-02-28T01:05:26;8.82;;;5.30;;
23078;SDS011;11707;50.830;4.364;2023-02-28T01:07:52;9.10;;;5.25;;
23078;SDS011;11707;50.830;4.364;2023-02-28T01:10:20;11.20;;;4.72;;
23078;SDS011;11707;50.830;4.364;2023-02-28T01:12:46;9.77;;;4.97;;
23078;SDS011;11707;50.830;4.364;2023-02-28T01:15:14;7.38;;;4.63;;
23078;SDS011;11707;50.830;4.364;2023-02-28T01:17:39;7.32;;;4.35;;
23078;SDS011;11707;50.830;4.364;2023-02-28T01:20:05;9.93;;;4.45;;
23078;SDS011;11707;50.830;4.364;2023-02-28T01:22:32;8.63;;;4.30;;
23078;SDS011;11707;50.830;4.364;2023-02-28T01:25:00;6.57;;;4.05;;
23078;SDS011;11707;50.830;4.364;2023-02-28T01:27:28;11.50;;;5.10;;
23078;SDS011;11707;50.830;4.364;2023-02-28T01:29:54;6.68;;;4.00;;
23078;SDS011;11707;50.830;4.364;2023-02-28T01:32:20;6.63;;;4.45;;
23078;SDS011;11707;50.830;4.364;2023-02-28T01:34:46;10.27;;;4.32;;
23078;SDS011;11707;50.830;4.364;2023-02-28T01:37:12;7.18;;;4.15;;
23078;SDS011;11707;50.830;4.364;2023-02-28T01:39:38;13.48;;;4.93;;
23078;SDS011;11707;50.830;4.364;2023-02-28T01:42:07;9.02;;;4.95;;
23078;SDS011;11707;50.830;4.364;2023-02-28T01:47:38;7.53;;;4.85;;
23078;SDS011;11707;50.830;4.364;2023-02-28T01:50:07;9.07;;;4.82;;
23078;SDS011;11707;50.830;4.364;2023-02-28T01:52:40;10.15;;;5.55;;
23078;SDS011;11707;50.830;4.364;2023-02-28T01:55:08;10.88;;;5.00;;
23078;SDS011;11707;50.830;4.364;2023-02-28T01:57:41;8.13;;;4.75;;
23078;SDS011;11707;50.830;4.364;2023-02-28T02:00:11;8.25;;;5.40;;
23078;SDS011;11707;50.830;4.364;2023-02-28T02:02:43;8.05;;;5.25;;
23078;SDS011;11707;50.830;4.364;2023-02-28T02:05:16;7.15;;;5.30;;
23078;SDS011;11707;50.830;4.364;2023-02-28T02:07:48;10.10;;;5.30;;
23078;SDS011;11707;50.830;4.364;2023-02-28T02:18:21;6.50;;;4.47;;
23078;SDS011;11707;50.830;4.364;2023-02-28T02:37:14;7.25;;;5.35;;
23078;SDS011;11707;50.830;4.364;2023-02-28T02:39:57;9.65;;;6.20;;
23078;SDS011;11707;50.830;4.364;2023-02-28T02:42:47;8.45;;;6.07;;
23078;SDS011;11707;50.830;4.364;2023-02-28T02:45:37;10.00;;;5.60;;
23078;SDS011;11707;50.830;4.364;2023-02-28T02:48:15;11.02;;;6.30;;
23078;SDS011;11707;50.830;4.364;2023-02-28T02:50:50;8.50;;;6.07;;
23078;SDS011;11707;50.830;4.364;2023-02-28T02:53:21;13.05;;;6.40;;
23078;SDS011;11707;50.830;4.364;2023-02-28T02:55:56;11.30;;;6.90;;
23078;SDS011;11707;50.830;4.364;2023-02-28T02:58:25;12.70;;;6.20;;
23078;SDS011;11707;50.830;4.364;2023-02-28T03:00:58;8.45;;;6.15;;
23078;SDS011;11707;50.830;4.364;2023-02-28T03:03:26;8.48;;;6.18;;
23078;SDS011;11707;50.830;4.364;2023-02-28T03:05:57;11.32;;;6.18;;
23078;SDS011;11707;50.830;4.364;2023-02-28T03:08:25;9.63;;;6.18;;
23078;SDS011;11707;50.830;4.364;2023-02-28T03:10:52;10.10;;;5.63;;
23078;SDS011;11707;50.830;4.364;2023-02-28T03:16:33;9.20;;;6.47;;
23078;SDS011;11707;50.830;4.364;2023-02-28T03:22:14;12.80;;;7.72;;
23078;SDS011;11707;50.830;4.364;2023-02-28T03:25:09;9.63;;;7.20;;
23078;SDS011;11707;50.830;4.364;2023-02-28T03:27:49;9.73;;;6.10;;
23078;SDS011;11707;50.830;4.364;2023-02-28T03:33:03;13.07;;;6.75;;
23078;SDS011;11707;50.830;4.364;2023-02-28T03:35:45;10.30;;;7.18;;
23078;SDS011;11707;50.830;4.364;2023-02-28T03:38:18;12.18;;;6.53;;
23078;SDS011;11707;50.830;4.364;2023-02-28T03:40:55;11.23;;;7.47;;
23078;SDS011;11707;50.830;4.364;2023-02-28T03:43:31;11.10;;;7.53;;
23078;SDS011;11707;50.830;4.364;2023-02-28T03:46:01;10.75;;;7.22;;
23078;SDS011;11707;50.830;4.364;2023-02-28T03:48:40;11.88;;;7.38;;
23078;SDS011;11707;50.830;4.364;2023-02-28T03:51:12;10.57;;;7.38;;
23078;SDS011;11707;50.830;4.364;2023-02-28T03:53:44;15.38;;;7.10;;
23078;SDS011;11707;50.830;4.364;2023-02-28T03:56:17;14.18;;;7.60;;
23078;SDS011;11707;50.830;4.364;2023-02-28T03:58:51;10.43;;;7.17;;
23078;SDS011;11707;50.830;4.364;2023-02-28T04:01:35;9.55;;;6.85;;
23078;SDS011;11707;50.830;4.364;2023-02-28T04:06:36;12.50;;;7.65;;
23078;SDS011;11707;50.830;4.364;2023-02-28T04:09:03;16.15;;;7.60;;
23078;SDS011;11707;50.830;4.364;2023-02-28T04:14:08;12.25;;;7.45;;
23078;SDS011;11707;50.830;4.364;2023-02-28T04:16:35;12.68;;;7.47;;
23078;SDS011;11707;50.830;4.364;2023-02-28T04:19:03;13.95;;;8.35;;
23078;SDS011;11707;50.830;4.364;2023-02-28T04:21:34;15.68;;;7.93;;
23078;SDS011;11707;50.830;4.364;2023-02-28T04:24:01;10.05;;;7.28;;
23078;SDS011;11707;50.830;4.364;2023-02-28T04:26:29;11.40;;;8.05;;
23078;SDS011;11707;50.830;4.364;2023-02-28T04:28:59;10.25;;;7.15;;
23078;SDS011;11707;50.830;4.364;2023-02-28T04:31:28;13.30;;;8.35;;
23078;SDS011;11707;50.830;4.364;2023-02-28T04:33:53;11.55;;;8.05;;
23078;SDS011;11707;50.830;4.364;2023-02-28T04:36:23;11.25;;;7.53;;
23078;SDS011;11707;50.830;4.364;2023-02-28T04:38:49;12.10;;;7.28;;
23078;SDS011;11707;50.830;4.364;2023-02-28T04:41:16;12.38;;;7.75;;
23078;SDS011;11707;50.830;4.364;2023-02-28T04:43:42;13.75;;;8.13;;
23078;SDS011;11707;50.830;4.364;2023-02-28T04:46:08;16.55;;;8.23;;
23078;SDS011;11707;50.830;4.364;2023-02-28T04:48:37;11.50;;;7.75;;
23078;SDS011;11707;50.830;4.364;2023-02-28T04:51:05;11.23;;;7.88;;
23078;SDS011;11707;50.830;4.364;2023-02-28T04:53:35;11.30;;;7.85;;
23078;SDS011;11707;50.830;4.364;2023-02-28T04:56:08;12.65;;;8.57;;
23078;SDS011;11707;50.830;4.364;2023-02-28T04:58:36;14.75;;;8.05;;
23078;SDS011;11707;50.830;4.364;2023-02-28T05:01:06;12.65;;;8.13;;
23078;SDS011;11707;50.830;4.364;2023-02-28T05:03:41;16.08;;;7.32;;
23078;SDS011;11707;50.830;4.364;2023-02-28T05:06:08;10.60;;;8.38;;
23078;SDS011;11707;50.830;4.364;2023-02-28T05:08:35;10.70;;;7.63;;
23078;SDS011;11707;50.830;4.364;2023-02-28T05:11:03;12.10;;;7.32;;
23078;SDS011;11707;50.830;4.364;2023-02-28T05:13:31;14.30;;;9.63;;
23078;SDS011;11707;50.830;4.364;2023-02-28T05:15:57;16.10;;;8.32;;
23078;SDS011;11707;50.830;4.364;2023-02-28T05:18:22;19.38;;;8.93;;
23078;SDS011;11707;50.830;4.364;2023-02-28T05:20:48;14.15;;;8.57;;
23078;SDS011;11707;50.830;4.364;2023-02-28T05:23:16;9.75;;;7.35;;
23078;SDS011;11707;50.830;4.364;2023-02-28T05:25:44;12.70;;;7.75;;
23078;SDS011;11707;50.830;4.364;2023-02-28T05:28:12;14.38;;;8.38;;
23078;SDS011;11707;50.830;4.364;2023-02-28T05:30:39;13.13;;;9.05;;
23078;SDS011;11707;50.830;4.364;2023-02-28T05:33:05;15.75;;;7.97;;
23078;SDS011;11707;50.830;4.364;2023-02-28T05:35:31;14.50;;;8.00;;
23078;SDS011;11707;50.830;4.364;2023-02-28T05:37:57;11.90;;;7.63;;
23078;SDS011;11707;50.830;4.364;2023-02-28T05:40:25;12.82;;;8.07;;
23078;SDS011;11707;50.830;4.364;2023-02-28T05:42:51;16.10;;;8.85;;
23078;SDS011;11707;50.830;4.364;2023-02-28T05:45:16;12.63;;;8.15;;
23078;SDS011;11707;50.830;4.364;2023-02-28T05:47:44;10.00;;;7.75;;
23078;SDS011;11707;50.830;4.364;2023-02-28T05:50:10;11.63;;;7.55;;
23078;SDS011;11707;50.830;4.364;2023-02-28T05:52:36;16.60;;;8.80;;
23078;SDS011;11707;50.830;4.364;2023-02-28T05:55:02;9.93;;;7.35;;
23078;SDS011;11707;50.830;4.364;2023-02-28T05:57:28;11.85;;;7.30;;
23078;SDS011;11707;50.830;4.364;2023-02-28T05:59:54;11.43;;;7.60;;
23078;SDS011;11707;50.830;4.364;2023-02-28T06:02:20;15.38;;;8.40;;
23078;SDS011;11707;50.830;4.364;2023-02-28T06:04:46;18.63;;;8.63;;
23078;SDS011;11707;50.830;4.364;2023-02-28T06:07:11;11.35;;;7.90;;
23078;SDS011;11707;50.830;4.364;2023-02-28T06:09:37;16.02;;;8.98;;
23078;SDS011;11707;50.830;4.364;2023-02-28T06:12:04;14.85;;;7.85;;
23078;SDS011;11707;50.830;4.364;2023-02-28T06:14:32;12.00;;;8.10;;
23078;SDS011;11707;50.830;4.364;2023-02-28T06:16:58;10.38;;;7.35;;
23078;SDS011;11707;50.830;4.364;2023-02-28T06:19:25;14.18;;;7.72;;
23078;SDS011;11707;50.830;4.364;2023-02-28T06:21:54;12.95;;;7.50;;
23078;SDS011;11707;50.830;4.364;2023-02-28T06:24:23;12.82;;;7.35;;
23078;SDS011;11707;50.830;4.364;2023-02-28T06:26:50;12.88;;;7.68;;
23078;SDS011;11707;50.830;4.364;2023-02-28T06:29:16;11.98;;;8.07;;
23078;SDS011;11707;50.830;4.364;2023-02-28T06:31:43;12.88;;;7.68;;
23078;SDS011;11707;50.830;4.364;2023-02-28T06:34:13;12.57;;;8.43;;
23078;SDS011;11707;50.830;4.364;2023-02-28T06:36:39;14.52;;;8.40;;
23078;SDS011;11707;50.830;4.364;2023-02-28T06:39:06;11.98;;;7.53;;
23078;SDS011;11707;50.830;4.364;2023-02-28T06:41:32;17.73;;;9.05;;
23078;SDS011;11707;50.830;4.364;2023-02-28T06:44:11;11.65;;;6.85;;
23078;SDS011;11707;50.830;4.364;2023-02-28T06:46:38;11.00;;;8.30;;
23078;SDS011;11707;50.830;4.364;2023-02-28T06:49:08;10.45;;;6.90;;
23078;SDS011;11707;50.830;4.364;2023-02-28T06:51:34;13.02;;;7.38;;
23078;SDS011;11707;50.830;4.364;2023-02-28T06:54:01;13.10;;;9.07;;
23078;SDS011;11707;50.830;4.364;2023-02-28T06:56:28;11.68;;;7.07;;
23078;SDS011;11707;50.830;4.364;2023-02-28T06:58:59;11.05;;;6.97;;
23078;SDS011;11707;50.830;4.364;2023-02-28T07:01:26;15.18;;;8.18;;
23078;SDS011;11707;50.830;4.364;2023-02-28T07:03:57;12.18;;;6.85;;
23078;SDS011;11707;50.830;4.364;2023-02-28T07:06:23;15.13;;;6.82;;
23078;SDS011;11707;50.830;4.364;2023-02-28T07:08:50;18.40;;;8.02;;
23078;SDS011;11707;50.830;4.364;2023-02-28T07:11:17;15.52;;;7.07;;
23078;SDS011;11707;50.830;4.364;2023-02-28T07:13:44;10.48;;;7.25;;
23078;SDS011;11707;50.830;4.364;2023-02-28T07:16:10;13.65;;;7.55;;
23078;SDS011;11707;50.830;4.364;2023-02-28T07:18:36;16.55;;;8.00;;
23078;SDS011;11707;50.830;4.364;2023-02-28T07:21:06;11.82;;;6.63;;
23078;SDS011;11707;50.830;4.364;2023-02-28T07:23:36;14.82;;;7.80;;
23078;SDS011;11707;50.830;4.364;2023-02-28T07:26:08;11.80;;;7.50;;
23078;SDS011;11707;50.830;4.364;2023-02-28T07:28:39;15.05;;;7.55;;
23078;SDS011;11707;50.830;4.364;2023-02-28T07:31:09;13.38;;;7.28;;
23078;SDS011;11707;50.830;4.364;2023-02-28T07:33:36;18.20;;;7.72;;
23078;SDS011;11707;50.830;4.364;2023-02-28T07:36:06;21.05;;;6.75;;
23078;SDS011;11707;50.830;4.364;2023-02-28T07:38:34;12.02;;;6.82;;
23078;SDS011;11707;50.830;4.364;2023-02-28T07:41:01;8.82;;;6.50;;
23078;SDS011;11707;50.830;4.364;2023-02-28T07:43:31;8.50;;;5.32;;
23078;SDS011;11707;50.830;4.364;2023-02-28T07:46:04;12.98;;;6.05;;
23078;SDS011;11707;50.830;4.364;2023-02-28T07:48:34;11.57;;;5.68;;
23078;SDS011;11707;50.830;4.364;2023-02-28T07:51:00;11.93;;;6.57;;
23078;SDS011;11707;50.830;4.364;2023-02-28T07:53:27;17.25;;;5.55;;
23078;SDS011;11707;50.830;4.364;2023-02-28T07:55:57;10.82;;;5.57;;
23078;SDS011;11707;50.830;4.364;2023-02-28T07:58:24;20.65;;;6.75;;
23078;SDS011;11707;50.830;4.364;2023-02-28T08:00:50;10.63;;;4.85;;
23078;SDS011;11707;50.830;4.364;2023-02-28T08:03:20;12.32;;;5.40;;
23078;SDS011;11707;50.830;4.364;2023-02-28T08:05:47;17.42;;;4.63;;
23078;SDS011;11707;50.830;4.364;2023-02-28T08:08:13;14.40;;;4.88;;
23078;SDS011;11707;50.830;4.364;2023-02-28T08:10:39;6.60;;;4.93;;
23078;SDS011;11707;50.830;4.364;2023-02-28T08:13:05;14.60;;;4.78;;
23078;SDS011;11707;50.830;4.364;2023-02-28T08:15:35;9.00;;;4.00;;
23078;SDS011;11707;50.830;4.364;2023-02-28T08:18:01;11.63;;;4.43;;
23078;SDS011;11707;50.830;4.364;2023-02-28T08:20:27;8.95;;;4.43;;
23078;SDS011;11707;50.830;4.364;2023-02-28T08:22:53;8.60;;;3.58;;
23078;SDS011;11707;50.830;4.364;2023-02-28T08:25:19;6.85;;;4.03;;
23078;SDS011;11707;50.830;4.364;2023-02-28T08:27:45;10.65;;;4.30;;
23078;SDS011;11707;50.830;4.364;2023-02-28T08:30:11;7.68;;;3.85;;
23078;SDS011;11707;50.830;4.364;2023-02-28T08:32:38;7.15;;;3.55;;
23078;SDS011;11707;50.830;4.364;2023-02-28T08:35:05;8.63;;;3.58;;
23078;SDS011;11707;50.830;4.364;2023-02-28T08:37:31;7.28;;;3.95;;
23078;SDS011;11707;50.830;4.364;2023-02-28T08:39:57;6.28;;;3.75;;
23078;SDS011;11707;50.830;4.364;2023-02-28T08:42:23;6.53;;;3.97;;
23078;SDS011;11707;50.830;4.364;2023-02-28T08:44:49;6.20;;;3.10;;
23078;SDS011;11707;50.830;4.364;2023-02-28T08:47:15;4.10;;;2.72;;
23078;SDS011;11707;50.830;4.364;2023-02-28T08:49:40;5.47;;;3.33;;
23078;SDS011;11707;50.830;4.364;2023-02-28T08:52:08;9.20;;;3.80;;
23078;SDS011;11707;50.830;4.364;2023-02-28T08:54:34;6.53;;;3.65;;
23078;SDS011;11707;50.830;4.364;2023-02-28T08:57:03;7.05;;;3.70;;
23078;SDS011;11707;50.830;4.364;2023-02-28T08:59:29;5.03;;;3.35;;
23078;SDS011;11707;50.830;4.364;2023-02-28T09:01:55;5.35;;;3.55;;
23078;SDS011;11707;50.830;4.364;2023-02-28T09:04:21;7.97;;;3.88;;
23078;SDS011;11707;50.830;4.364;2023-02-28T09:06:47;5.30;;;4.05;;
23078;SDS011;11707;50.830;4.364;2023-02-28T09:09:14;5.40;;;3.70;;
23078;SDS011;11707;50.830;4.364;2023-02-28T09:11:42;5.60;;;3.50;;
23078;SDS011;11707;50.830;4.364;2023-02-28T09:14:08;3.50;;;2.85;;
23078;SDS011;11707;50.830;4.364;2023-02-28T09:16:34;6.50;;;3.25;;
23078;SDS011;11707;50.830;4.364;2023-02-28T09:19:02;8.32;;;3.67;;
23078;SDS011;11707;50.830;4.364;2023-02-28T09:21:30;6.82;;;3.63;;
23078;SDS011;11707;50.830;4.364;2023-02-28T09:23:55;4.72;;;3.20;;
23078;SDS011;11707;50.830;4.364;2023-02-28T09:26:22;4.93;;;2.90;;
23078;SDS011;11707;50.830;4.364;2023-02-28T09:28:51;3.78;;;2.10;;
23078;SDS011;11707;50.830;4.364;2023-02-28T09:31:19;6.57;;;3.25;;
23078;SDS011;11707;50.830;4.364;2023-02-28T09:33:47;8.63;;;4.22;;
23078;SDS011;11707;50.830;4.364;2023-02-28T09:36:13;6.40;;;2.92;;
23078;SDS011;11707;50.830;4.364;2023-02-28T09:38:39;6.63;;;2.92;;
23078;SDS011;11707;50.830;4.364;2023-02-28T09:41:48;7.25;;;2.63;;
23078;SDS011;11707;50.830;4.364;2023-02-28T09:44:02;8.35;;;3.35;;
23078;SDS011;11707;50.830;4.364;2023-02-28T09:46:37;9.60;;;2.67;;
23078;SDS011;11707;50.830;4.364;2023-02-28T09:49:10;3.08;;;2.13;;
23078;SDS011;11707;50.830;4.364;2023-02-28T09:54:30;4.05;;;2.10;;
23078;SDS011;11707;50.830;4.364;2023-02-28T09:59:32;4.63;;;2.30;;
23078;SDS011;11707;50.830;4.364;2023-02-28T10:05:11;3.95;;;2.50;;
23078;SDS011;11707;50.830;4.364;2023-02-28T10:12:46;7.00;;;2.53;;
23078;SDS011;11707;50.830;4.364;2023-02-28T10:15:14;4.30;;;2.20;;
23078;SDS011;11707;50.830;4.364;2023-02-28T10:17:42;4.10;;;2.58;;
23078;SDS011;11707;50.830;4.364;2023-02-28T10:20:19;3.35;;;2.20;;
23078;SDS011;11707;50.830;4.364;2023-02-28T10:25:20;6.20;;;2.00;;
23078;SDS011;11707;50.830;4.364;2023-02-28T10:27:48;4.07;;;2.38;;
23078;SDS011;11707;50.830;4.364;2023-02-28T10:30:15;2.78;;;2.03;;
23078;SDS011;11707;50.830;4.364;2023-02-28T10:32:43;4.50;;;2.35;;
23078;SDS011;11707;50.830;4.364;2023-02-28T10:35:19;3.78;;;2.08;;
23078;SDS011;11707;50.830;4.364;2023-02-28T10:37:50;5.88;;;2.20;;
23078;SDS011;11707;50.830;4.364;2023-02-28T10:45:28;1.95;;;1.42;;
23078;SDS011;11707;50.830;4.364;2023-02-28T10:48:44;10.05;;;2.67;;
23078;SDS011;11707;50.830;4.364;2023-02-28T10:55:56;15.52;;;2.15;;
23078;SDS011;11707;50.830;4.364;2023-02-28T11:01:21;5.38;;;1.95;;
23078;SDS011;11707;50.830;4.364;2023-02-28T11:03:59;3.97;;;1.75;;
23078;SDS011;11707;50.830;4.364;2023-02-28T11:06:26;7.57;;;2.20;;
23078;SDS011;11707;50.830;4.364;2023-02-28T11:09:00;4.53;;;2.15;;
23078;SDS011;11707;50.830;4.364;2023-02-28T11:11:30;2.55;;;1.80;;
23078;SDS011;11707;50.830;4.364;2023-02-28T11:14:06;3.22;;;1.85;;
23078;SDS011;11707;50.830;4.364;2023-02-28T11:16:42;4.03;;;2.20;;
23078;SDS011;11707;50.830;4.364;2023-02-28T11:19:15;2.80;;;1.77;;
23078;SDS011;11707;50.830;4.364;2023-02-28T11:22:02;6.35;;;2.30;;
23078;SDS011;11707;50.830;4.364;2023-02-28T11:24:43;3.47;;;1.42;;
23078;SDS011;11707;50.830;4.364;2023-02-28T11:27:59;2.88;;;2.00;;
23078;SDS011;11707;50.830;4.364;2023-02-28T11:30:04;2.53;;;1.70;;
23078;SDS011;11707;50.830;4.364;2023-02-28T11:33:18;2.90;;;1.83;;
23078;SDS011;11707;50.830;4.364;2023-02-28T11:36:03;3.90;;;2.22;;
23078;SDS011;11707;50.830;4.364;2023-02-28T11:38:35;3.05;;;1.75;;
23078;SDS011;11707;50.830;4.364;2023-02-28T11:41:10;5.28;;;2.70;;
23078;SDS011;11707;50.830;4.364;2023-02-28T11:51:35;3.28;;;1.88;;
23078;SDS011;11707;50.830;4.364;2023-02-28T12:03:11;7.40;;;2.25;;
23078;SDS011;11707;50.830;4.364;2023-02-28T12:05:57;3.72;;;1.92;;
23078;SDS011;11707;50.830;4.364;2023-02-28T12:11:21;4.03;;;2.35;;
23078;SDS011;11707;50.830;4.364;2023-02-28T12:14:06;4.72;;;2.47;;
23078;SDS011;11707;50.830;4.364;2023-02-28T12:16:49;3.50;;;2.50;;
23078;SDS011;11707;50.830;4.364;2023-02-28T12:27:30;3.72;;;2.35;;
23078;SDS011;11707;50.830;4.364;2023-02-28T12:30:19;7.65;;;2.13;;
23078;SDS011;11707;50.830;4.364;2023-02-28T12:32:53;3.13;;;1.88;;
23078;SDS011;11707;50.830;4.364;2023-02-28T12:35:53;4.35;;;2.40;;
23078;SDS011;11707;50.830;4.364;2023-02-28T12:38:37;4.47;;;1.77;;
23078;SDS011;11707;50.830;4.364;2023-02-28T12:43:51;3.70;;;2.13;;
23078;SDS011;11707;50.830;4.364;2023-02-28T12:46:24;4.80;;;1.77;;
23078;SDS011;11707;50.830;4.364;2023-02-28T12:49:08;2.90;;;1.93;;
23078;SDS011;11707;50.830;4.364;2023-02-28T12:51:40;2.88;;;1.75;;
23078;SDS011;11707;50.830;4.364;2023-02-28T12:54:12;2.83;;;2.00;;
23078;SDS011;11707;50.830;4.364;2023-02-28T12:57:15;3.40;;;2.08;;
23078;SDS011;11707;50.830;4.364;2023-02-28T12:59:54;7.30;;;2.10;;
23078;SDS011;11707;50.830;4.364;2023-02-28T13:10:52;15.65;;;2.67;;
23078;SDS011;11707;50.830;4.364;2023-02-28T13:13:22;4.13;;;1.80;;
23078;SDS011;11707;50.830;4.364;2023-02-28T13:16:01;2.58;;;1.73;;
23078;SDS011;11707;50.830;4.364;2023-02-28T13:18:32;5.72;;;2.10;;
23078;SDS011;11707;50.830;4.364;2023-02-28T13:21:32;7.80;;;2.17;;
23078;SDS011;11707;50.830;4.364;2023-02-28T13:24:08;2.13;;;1.33;;
23078;SDS011;11707;50.830;4.364;2023-02-28T13:32:18;3.92;;;1.45;;
23078;SDS011;11707;50.830;4.364;2023-02-28T13:34:37;3.20;;;2.10;;
23078;SDS011;11707;50.830;4.364;2023-02-28T13:37:32;2.63;;;1.85;;
23078;SDS011;11707;50.830;4.364;2023-02-28T13:42:46;4.40;;;2.20;;
23078;SDS011;11707;50.830;4.364;2023-02-28T13:50:27;3.58;;;2.10;;
23078;SDS011;11707;50.830;4.364;2023-02-28T13:55:46;7.15;;;1.80;;
23078;SDS011;11707;50.830;4.364;2023-02-28T14:03:52;4.20;;;1.60;;
23078;SDS011;11707;50.830;4.364;2023-02-28T14:06:38;5.47;;;1.98;;
23078;SDS011;11707;50.830;4.364;2023-02-28T14:11:49;7.43;;;2.00;;
23078;SDS011;11707;50.830;4.364;2023-02-28T14:17:01;3.15;;;2.15;;
23078;SDS011;11707;50.830;4.364;2023-02-28T14:19:39;3.53;;;1.73;;
23078;SDS011;11707;50.830;4.364;2023-02-28T14:30:40;5.32;;;2.30;;
23078;SDS011;11707;50.830;4.364;2023-02-28T14:33:23;6.45;;;1.70;;
23078;SDS011;11707;50.830;4.364;2023-02-28T14:38:19;7.20;;;1.98;;
23078;SDS011;11707;50.830;4.364;2023-02-28T14:40:49;3.35;;;2.47;;
23078;SDS011;11707;50.830;4.364;2023-02-28T14:43:22;4.20;;;2.13;;
23078;SDS011;11707;50.830;4.364;2023-02-28T14:45:59;3.47;;;2.33;;
23078;SDS011;11707;50.830;4.364;2023-02-28T14:48:29;3.42;;;1.70;;
23078;SDS011;11707;50.830;4.364;2023-02-28T14:50:59;3.80;;;2.05;;
23078;SDS011;11707;50.830;4.364;2023-02-28T14:53:28;2.85;;;2.10;;
23078;SDS011;11707;50.830;4.364;2023-02-28T14:56:00;3.80;;;2.08;;
23078;SDS011;11707;50.830;4.364;2023-02-28T14:58:29;4.22;;;2.50;;
23078;SDS011;11707;50.830;4.364;2023-02-28T15:01:00;5.20;;;2.50;;
23078;SDS011;11707;50.830;4.364;2023-02-28T15:03:37;4.03;;;2.92;;
23078;SDS011;11707;50.830;4.364;2023-02-28T15:06:11;7.75;;;2.65;;
23078;SDS011;11707;50.830;4.364;2023-02-28T15:08:39;16.02;;;6.90;;
23078;SDS011;11707;50.830;4.364;2023-02-28T15:11:06;4.43;;;2.65;;
23078;SDS011;11707;50.830;4.364;2023-02-28T15:16:13;7.47;;;2.50;;
23078;SDS011;11707;50.830;4.364;2023-02-28T15:18:46;3.70;;;2.80;;
23078;SDS011;11707;50.830;4.364;2023-02-28T15:21:34;3.45;;;2.47;;
23078;SDS011;11707;50.830;4.364;2023-02-28T15:26:33;4.53;;;2.80;;
23078;SDS011;11707;50.830;4.364;2023-02-28T15:29:14;6.28;;;2.50;;
23078;SDS011;11707;50.830;4.364;2023-02-28T15:32:06;4.70;;;2.50;;
23078;SDS011;11707;50.830;4.364;2023-02-28T15:34:37;5.07;;;2.55;;
23078;SDS011;11707;50.830;4.364;2023-02-28T15:37:23;4.68;;;2.80;;
23078;SDS011;11707;50.830;4.364;2023-02-28T15:40:14;3.45;;;2.30;;
23078;SDS011;11707;50.830;4.364;2023-02-28T15:43:05;3.78;;;2.75;;
23078;SDS011;11707;50.830;4.364;2023-02-28T15:48:20;4.40;;;2.78;;
23078;SDS011;11707;50.830;4.364;2023-02-28T15:51:17;9.57;;;2.53;;
23078;SDS011;11707;50.830;4.364;2023-02-28T15:53:57;3.78;;;2.67;;
23078;SDS011;11707;50.830;4.364;2023-02-28T15:56:43;4.28;;;2.72;;
23078;SDS011;11707;50.830;4.364;2023-02-28T15:59:15;7.10;;;2.65;;
23078;SDS011;11707;50.830;4.364;2023-02-28T16:02:11;3.60;;;2.60;;
23078;SDS011;11707;50.830;4.364;2023-02-28T16:04:58;4.10;;;2.75;;
23078;SDS011;11707;50.830;4.364;2023-02-28T16:07:26;3.63;;;2.42;;
23078;SDS011;11707;50.830;4.364;2023-02-28T16:09:55;3.90;;;2.97;;
23078;SDS011;11707;50.830;4.364;2023-02-28T16:12:24;7.55;;;2.90;;
23078;SDS011;11707;50.830;4.364;2023-02-28T16:14:54;5.53;;;2.58;;
23078;SDS011;11707;50.830;4.364;2023-02-28T16:17:24;3.97;;;2.58;;
23078;SDS011;11707;50.830;4.364;2023-02-28T16:19:52;4.28;;;2.63;;
23078;SDS011;11707;50.830;4.364;2023-02-28T16:22:18;3.55;;;2.80;;
23078;SDS011;11707;50.830;4.364;2023-02-28T16:24:43;8.25;;;2.90;;
23078;SDS011;11707;50.830;4.364;2023-02-28T16:27:14;3.25;;;2.58;;
23078;SDS011;11707;50.830;4.364;2023-02-28T16:30:03;2.25;;;1.98;;
23078;SDS011;11707;50.830;4.364;2023-02-28T16:32:30;4.15;;;2.42;;
23078;SDS011;11707;50.830;4.364;2023-02-28T16:34:59;2.75;;;2.30;;
23078;SDS011;11707;50.830;4.364;2023-02-28T16:37:26;6.63;;;2.53;;
23078;SDS011;11707;50.830;4.364;2023-02-28T16:39:52;9.13;;;3.15;;
23078;SDS011;11707;50.830;4.364;2023-02-28T16:42:22;5.30;;;2.60;;
23078;SDS011;11707;50.830;4.364;2023-02-28T16:44:53;4.10;;;2.75;;
23078;SDS011;11707;50.830;4.364;2023-02-28T16:47:20;5.57;;;3.97;;
23078;SDS011;11707;50.830;4.364;2023-02-28T16:49:46;6.07;;;2.50;;
23078;SDS011;11707;50.830;4.364;2023-02-28T16:52:12;3.03;;;2.33;;
23078;SDS011;11707;50.830;4.364;2023-02-28T16:54:39;4.50;;;2.45;;
23078;SDS011;11707;50.830;4.364;2023-02-28T16:57:06;3.22;;;2.30;;
23078;SDS011;11707;50.830;4.364;2023-02-28T16:59:40;3.60;;;2.30;;
23078;SDS011;11707;50.830;4.364;2023-02-28T17:02:12;3.97;;;2.95;;
23078;SDS011;11707;50.830;4.364;2023-02-28T17:04:41;4.07;;;2.88;;
23078;SDS011;11707;50.830;4.364;2023-02-28T17:07:11;3.15;;;1.88;;
23078;SDS011;11707;50.830;4.364;2023-02-28T17:09:38;4.03;;;2.97;;
23078;SDS011;11707;50.830;4.364;2023-02-28T17:12:05;5.75;;;2.50;;
23078;SDS011;11707;50.830;4.364;2023-02-28T17:14:31;4.68;;;2.67;;
23078;SDS011;11707;50.830;4.364;2023-02-28T17:16:57;4.55;;;2.20;;
23078;SDS011;11707;50.830;4.364;2023-02-28T17:19:23;9.02;;;2.88;;
23078;SDS011;11707;50.830;4.364;2023-02-28T17:21:49;5.32;;;3.03;;
23078;SDS011;11707;50.830;4.364;2023-02-28T17:24:17;5.68;;;2.78;;
23078;SDS011;11707;50.830;4.364;2023-02-28T17:26:43;5.97;;;3.30;;
23078;SDS011;11707;50.830;4.364;2023-02-28T17:29:16;6.13;;;2.35;;
23078;SDS011;11707;50.830;4.364;2023-02-28T17:31:43;5.35;;;2.92;;
23078;SDS011;11707;50.830;4.364;2023-02-28T17:34:09;11.48;;;4.18;;
23078;SDS011;11707;50.830;4.364;2023-02-28T17:36:34;5.13;;;2.80;;
23078;SDS011;11707;50.830;4.364;2023-02-28T17:39:02;5.28;;;2.80;;
23078;SDS011;11707;50.830;4.364;2023-02-28T17:41:29;4.32;;;3.05;;